sensor_id;sensor_type;location;lat;lon;timestamp;pressure;altitude;pressure_sealevel;temperature;humidity
26807;BME280;14380;49.910;6.792;2023-06-24T00:01:03;99682.50;;;17.54;100.00
26807;BME280;14380;49.910;6.792;2023-06-24T00:03:31;99676.22;;;17.43;100.00
26807;BME280;14380;49.910;6.792;2023-06-24T00:06:02;99676.00;;;17.46;100.00
26807;BME280;14380;49.910;6.792;2023-06-24T00:08:29;99677.16;;;17.54;100.00
26807;BME280;14380;49.910;6.792;2023-06-24T00:10:59;99682.31;;;17.45;100.00
26807;BME280;14380;49.910;6.792;2023-06-24T00:13:26;99674.91;;;17.48;100.00
26807;BME280;14380;49.910;6.792;2023-06-24T00:15:54;99675.44;;;17.53;100.00
26807;BME280;14380;49.910;6.792;2023-06-24T00:18:20;99678.53;;;17.47;100.00
26807;BME280;14380;49.910;6.792;2023-06-24T00:20:51;99674.28;;;17.45;100.00
26807;BME280;14380;49.910;6.792;2023-06-24T00:23:22;99673.22;;;17.47;100.00
26807;BME280;14380;49.910;6.792;2023-06-24T00:25:50;99675.34;;;17.29;100.00
26807;BME280;14380;49.910;6.792;2023-06-24T00:28:16;99675.78;;;17.36;100.00
26807;BME280;14380;49.910;6.792;2023-06-24T00:30:43;99674.50;;;17.29;100.00
26807;BME280;14380;49.910;6.792;2023-06-24T00:33:10;99672.59;;;17.31;100.00
26807;BME280;14380;49.910;6.792;2023-06-24T00:35:38;99670.19;;;17.13;100.00
26807;BME280;14380;49.910;6.792;2023-06-24T00:38:06;99674.50;;;17.29;100.00
26807;BME280;14380;49.910;6.792;2023-06-24T00:40:33;99672.78;;;17.28;100.00
26807;BME280;14380;49.910;6.792;2023-06-24T00:43:00;99683.25;;;17.18;100.00
26807;BME280;14380;49.910;6.792;2023-06-24T00:45:28;99674.81;;;17.63;100.00
26807;BME280;14380;49.910;6.792;2023-06-24T00:47:57;99681.34;;;17.33;100.00
26807;BME280;14380;49.910;6.792;2023-06-24T00:50:24;99678.53;;;17.21;100.00
26807;BME280;14380;49.910;6.792;2023-06-24T00:52:51;99684.91;;;17.06;100.00
26807;BME280;14380;49.910;6.792;2023-06-24T00:55:19;99690.09;;;17.22;100.00
26807;BME280;14380;49.910;6.792;2023-06-24T00:57:47;99684.41;;;17.27;100.00
26807;BME280;14380;49.910;6.792;2023-06-24T01:00:17;99679.72;;;17.30;100.00
26807;BME280;14380;49.910;6.792;2023-06-24T01:02:44;99688.13;;;17.24;100.00
26807;BME280;14380;49.910;6.792;2023-06-24T01:05:12;99686.75;;;17.31;100.00
26807;BME280;14380;49.910;6.792;2023-06-24T01:07:40;99683.88;;;17.21;100.00
26807;BME280;14380;49.910;6.792;2023-06-24T01:10:08;99686.00;;;17.16;100.00
26807;BME280;14380;49.910;6.792;2023-06-24T01:12:37;99683.34;;;17.16;100.00
26807;BME280;14380;49.910;6.792;2023-06-24T01:15:05;99678.34;;;17.24;100.00
26807;BME280;14380;49.910;6.792;2023-06-24T01:17:37;99677.66;;;17.08;100.00
26807;BME280;14380;49.910;6.792;2023-06-24T01:20:08;99676.06;;;16.78;100.00
26807;BME280;14380;49.910;6.792;2023-06-24T01:23:02;99672.13;;;16.84;100.00
26807;BME280;14380;49.910;6.792;2023-06-24T01:25:45;99674.25;;;16.78;100.00
26807;BME280;14380;49.910;6.792;2023-06-24T01:28:28;99675.13;;;16.79;100.00
26807;BME280;14380;49.910;6.792;2023-06-24T01:31:20;99677.97;;;16.76;100.00
26807;BME280;14380;49.910;6.792;2023-06-24T01:33:54;99685.28;;;16.59;100.00
26807;BME280;14380;49.910;6.792;2023-06-24T01:36:25;99680.06;;;16.58;100.00
26807;BME280;14380;49.910;6.792;2023-06-24T01:39:01;99680.09;;;16.43;100.00
26807;BME280;14380;49.910;6.792;2023-06-24T01:41:31;99684.31;;;16.33;100.00
26807;BME280;14380;49.910;6.792;2023-06-24T01:44:00;99685.81;;;16.64;100.00
26807;BME280;14380;49.910;6.792;2023-06-24T01:46:29;99684.78;;;16.25;100.00
26807;BME280;14380;49.910;6.792;2023-06-24T01:49:01;99689.91;;;16.43;100.00
26807;BME280;14380;49.910;6.792;2023-06-24T01:51:29;99683.16;;;16.64;100.00
26807;BME280;14380;49.910;6.792;2023-06-24T01:54:01;99689.94;;;16.28;100.00
26807;BME280;14380;49.910;6.792;2023-06-24T01:56:30;99688.41;;;16.66;100.00
26807;BME280;14380;49.910;6.792;2023-06-24T01:59:00;99687.44;;;16.67;100.00
26807;BME280;14380;49.910;6.792;2023-06-24T02:01:32;99682.25;;;16.78;100.00
26807;BME280;14380;49.910;6.792;2023-06-24T02:04:00;99688.09;;;16.71;100.00
26807;BME280;14380;49.910;6.792;2023-06-24T02:06:28;99687.69;;;16.77;100.00
26807;BME280;14380;49.910;6.792;2023-06-24T02:08:57;99683.28;;;16.63;100.00
26807;BME280;14380;49.910;6.792;2023-06-24T02:11:26;99687.19;;;16.57;100.00
26807;BME280;14380;49.910;6.792;2023-06-24T02:13:54;99677.81;;;16.37;100.00
26807;BME280;14380;49.910;6.792;2023-06-24T02:16:22;99672.47;;;15.95;100.00
26807;BME280;14380;49.910;6.792;2023-06-24T02:18:51;99669.13;;;16.20;100.00
26807;BME280;14380;49.910;6.792;2023-06-24T02:21:18;99671.34;;;16.41;100.00
26807;BME280;14380;49.910;6.792;2023-06-24T02:23:46;99674.47;;;16.48;100.00
26807;BME280;14380;49.910;6.792;2023-06-24T02:26:14;99665.34;;;16.38;100.00
26807;BME280;14380;49.910;6.792;2023-06-24T02:28:42;99669.97;;;16.21;100.00
26807;BME280;14380;49.910;6.792;2023-06-24T02:31:10;99670.25;;;16.31;100.00
26807;BME280;14380;49.910;6.792;2023-06-24T02:33:38;99675.41;;;16.05;100.00
26807;BME280;14380;49.910;6.792;2023-06-24T02:36:07;99670.53;;;16.26;100.00
26807;BME280;14380;49.910;6.792;2023-06-24T02:38:33;99674.13;;;16.25;100.00
26807;BME280;14380;49.910;6.792;2023-06-24T02:41:00;99673.63;;;16.05;100.00
26807;BME280;14380;49.910;6.792;2023-06-24T02:43:29;99673.31;;;15.96;100.00
26807;BME280;14380;49.910;6.792;2023-06-24T02:45:57;99676.81;;;16.25;100.00
26807;BME280;14380;49.910;6.792;2023-06-24T02:48:24;99681.59;;;16.05;100.00
26807;BME280;14380;49.910;6.792;2023-06-24T02:50:51;99690.31;;;15.79;100.00
26807;BME280;14380;49.910;6.792;2023-06-24T02:53:20;99690.25;;;15.66;100.00
26807;BME280;14380;49.910;6.792;2023-06-24T02:55:49;99685.59;;;15.55;100.00
26807;BME280;14380;49.910;6.792;2023-06-24T02:58:16;99693.91;;;15.34;100.00
26807;BME280;14380;49.910;6.792;2023-06-24T03:00:43;99689.00;;;15.12;100.00
26807;BME280;14380;49.910;6.792;2023-06-24T03:03:10;99694.66;;;15.22;100.00
26807;BME280;14380;49.910;6.792;2023-06-24T03:05:38;99693.78;;;15.21;100.00
26807;BME280;14380;49.910;6.792;2023-06-24T03:08:05;99692.00;;;15.36;100.00
26807;BME280;14380;49.910;6.792;2023-06-24T03:10:36;99692.81;;;15.53;100.00
26807;BME280;14380;49.910;6.792;2023-06-24T03:13:03;99694.88;;;15.48;100.00
26807;BME280;14380;49.910;6.792;2023-06-24T03:15:29;99691.75;;;15.70;100.00
26807;BME280;14380;49.910;6.792;2023-06-24T03:17:56;99690.50;;;15.75;100.00
26807;BME280;14380;49.910;6.792;2023-06-24T03:20:23;99694.91;;;15.62;100.00
26807;BME280;14380;49.910;6.792;2023-06-24T03:22:53;99701.25;;;15.45;100.00
26807;BME280;14380;49.910;6.792;2023-06-24T03:25:21;99703.66;;;15.64;100.00
26807;BME280;14380;49.910;6.792;2023-06-24T03:27:49;99696.31;;;15.53;100.00
26807;BME280;14380;49.910;6.792;2023-06-24T03:30:15;99698.88;;;15.69;100.00
26807;BME280;14380;49.910;6.792;2023-06-24T03:32:42;99693.84;;;15.65;100.00
26807;BME280;14380;49.910;6.792;2023-06-24T03:35:11;99691.00;;;15.68;100.00
26807;BME280;14380;49.910;6.792;2023-06-24T03:37:38;99703.53;;;15.51;100.00
26807;BME280;14380;49.910;6.792;2023-06-24T03:40:06;99698.69;;;15.72;100.00
26807;BME280;14380;49.910;6.792;2023-06-24T03:42:33;99689.78;;;15.59;100.00
26807;BME280;14380;49.910;6.792;2023-06-24T03:45:01;99699.91;;;15.52;100.00
26807;BME280;14380;49.910;6.792;2023-06-24T03:47:28;99701.94;;;15.63;100.00
26807;BME280;14380;49.910;6.792;2023-06-24T03:49:55;99699.28;;;15.77;100.00
26807;BME280;14380;49.910;6.792;2023-06-24T03:52:21;99702.69;;;15.80;100.00
26807;BME280;14380;49.910;6.792;2023-06-24T03:54:48;99700.25;;;15.91;100.00
26807;BME280;14380;49.910;6.792;2023-06-24T03:57:14;99694.88;;;15.76;100.00
26807;BME280;14380;49.910;6.792;2023-06-24T03:59:41;99699.06;;;15.81;100.00
26807;BME280;14380;49.910;6.792;2023-06-24T04:02:09;99699.38;;;15.90;100.00
26807;BME280;14380;49.910;6.792;2023-06-24T04:04:36;99700.44;;;16.02;100.00
26807;BME280;14380;49.910;6.792;2023-06-24T04:07:03;99690.50;;;16.19;100.00
26807;BME280;14380;49.910;6.792;2023-06-24T04:09:32;99691.34;;;16.34;100.00
26807;BME280;14380;49.910;6.792;2023-06-24T04:11:59;99696.09;;;16.43;100.00
26807;BME280;14380;49.910;6.792;2023-06-24T04:14:26;99702.03;;;16.89;100.00
26807;BME280;14380;49.910;6.792;2023-06-24T04:16:53;99695.34;;;16.96;100.00
26807;BME280;14380;49.910;6.792;2023-06-24T04:19:20;99693.44;;;16.98;100.00
26807;BME280;14380;49.910;6.792;2023-06-24T04:21:47;99693.63;;;16.68;100.00
26807;BME280;14380;49.910;6.792;2023-06-24T04:24:14;99688.44;;;16.79;100.00
26807;BME280;14380;49.910;6.792;2023-06-24T04:26:40;99692.28;;;17.02;100.00
26807;BME280;14380;49.910;6.792;2023-06-24T04:29:07;99689.75;;;17.27;100.00
26807;BME280;14380;49.910;6.792;2023-06-24T04:31:33;99699.69;;;17.50;100.00
26807;BME280;14380;49.910;6.792;2023-06-24T04:34:00;99701.25;;;17.14;100.00
26807;BME280;14380;49.910;6.792;2023-06-24T04:36:28;99709.97;;;17.57;100.00
26807;BME280;14380;49.910;6.792;2023-06-24T04:38:54;99706.09;;;17.74;100.00
26807;BME280;14380;49.910;6.792;2023-06-24T04:41:22;99709.22;;;18.06;100.00
26807;BME280;14380;49.910;6.792;2023-06-24T04:43:49;99705.50;;;18.46;100.00
26807;BME280;14380;49.910;6.792;2023-06-24T04:46:16;99706.56;;;19.16;100.00
26807;BME280;14380;49.910;6.792;2023-06-24T04:48:42;99707.06;;;18.49;100.00
26807;BME280;14380;49.910;6.792;2023-06-24T04:51:09;99708.16;;;18.46;100.00
26807;BME280;14380;49.910;6.792;2023-06-24T04:53:37;99709.66;;;18.75;100.00
26807;BME280;14380;49.910;6.792;2023-06-24T04:56:03;99704.47;;;19.09;100.00
26807;BME280;14380;49.910;6.792;2023-06-24T04:58:30;99713.72;;;19.40;100.00
26807;BME280;14380;49.910;6.792;2023-06-24T05:00:56;99705.91;;;19.37;100.00
26807;BME280;14380;49.910;6.792;2023-06-24T05:03:24;99714.59;;;19.16;100.00
26807;BME280;14380;49.910;6.792;2023-06-24T05:05:50;99712.16;;;19.72;100.00
26807;BME280;14380;49.910;6.792;2023-06-24T05:08:17;99718.63;;;19.81;100.00
26807;BME280;14380;49.910;6.792;2023-06-24T05:10:45;99703.53;;;19.80;100.00
26807;BME280;14380;49.910;6.792;2023-06-24T05:13:12;99707.78;;;20.50;97.22
26807;BME280;14380;49.910;6.792;2023-06-24T05:15:38;99707.59;;;19.97;100.00
26807;BME280;14380;49.910;6.792;2023-06-24T05:18:05;99711.41;;;19.70;100.00
26807;BME280;14380;49.910;6.792;2023-06-24T05:20:31;99710.91;;;20.56;99.49
26807;BME280;14380;49.910;6.792;2023-06-24T05:22:58;99711.63;;;20.80;98.74
26807;BME280;14380;49.910;6.792;2023-06-24T05:25:24;99719.78;;;21.12;94.61
26807;BME280;14380;49.910;6.792;2023-06-24T05:27:52;99714.38;;;21.23;93.36
26807;BME280;14380;49.910;6.792;2023-06-24T05:30:19;99719.19;;;21.08;96.92
26807;BME280;14380;49.910;6.792;2023-06-24T05:32:45;99727.72;;;20.58;97.61
26807;BME280;14380;49.910;6.792;2023-06-24T05:35:12;99718.72;;;21.03;96.33
26807;BME280;14380;49.910;6.792;2023-06-24T05:37:39;99722.47;;;21.12;95.42
26807;BME280;14380;49.910;6.792;2023-06-24T05:40:06;99718.34;;;21.29;95.68
26807;BME280;14380;49.910;6.792;2023-06-24T05:42:34;99723.72;;;21.50;91.28
26807;BME280;14380;49.910;6.792;2023-06-24T05:45:03;99724.38;;;21.42;95.08
26807;BME280;14380;49.910;6.792;2023-06-24T05:47:29;99726.16;;;21.74;95.13
26807;BME280;14380;49.910;6.792;2023-06-24T05:49:56;99728.56;;;22.08;91.36
26807;BME280;14380;49.910;6.792;2023-06-24T05:52:23;99717.94;;;21.97;91.29
26807;BME280;14380;49.910;6.792;2023-06-24T05:54:50;99717.94;;;21.97;92.75
26807;BME280;14380;49.910;6.792;2023-06-24T05:57:17;99719.38;;;22.01;92.34
26807;BME280;14380;49.910;6.792;2023-06-24T05:59:43;99714.84;;;22.42;90.76
26807;BME280;14380;49.910;6.792;2023-06-24T06:02:11;99718.13;;;22.05;92.81
26807;BME280;14380;49.910;6.792;2023-06-24T06:04:38;99717.13;;;22.47;92.17
26807;BME280;14380;49.910;6.792;2023-06-24T06:07:05;99711.53;;;22.70;89.44
26807;BME280;14380;49.910;6.792;2023-06-24T06:09:32;99715.69;;;22.43;90.93
26807;BME280;14380;49.910;6.792;2023-06-24T06:11:59;99720.59;;;22.69;93.30
26807;BME280;14380;49.910;6.792;2023-06-24T06:14:27;99719.63;;;23.09;94.95
26807;BME280;14380;49.910;6.792;2023-06-24T06:16:53;99719.28;;;23.61;86.57
26807;BME280;14380;49.910;6.792;2023-06-24T06:19:21;99716.34;;;23.06;90.96
26807;BME280;14380;49.910;6.792;2023-06-24T06:21:49;99722.88;;;23.03;92.45
26807;BME280;14380;49.910;6.792;2023-06-24T06:24:15;99722.88;;;23.03;91.24
26807;BME280;14380;49.910;6.792;2023-06-24T06:26:42;99718.06;;;23.26;91.10
26807;BME280;14380;49.910;6.792;2023-06-24T06:29:09;99708.00;;;23.28;91.75
26807;BME280;14380;49.910;6.792;2023-06-24T06:31:36;99713.22;;;23.00;90.41
26807;BME280;14380;49.910;6.792;2023-06-24T06:34:03;99714.94;;;23.31;91.46
26807;BME280;14380;49.910;6.792;2023-06-24T06:36:31;99720.47;;;23.29;91.00
26807;BME280;14380;49.910;6.792;2023-06-24T06:38:57;99715.38;;;23.84;88.02
26807;BME280;14380;49.910;6.792;2023-06-24T06:41:24;99710.88;;;23.74;88.07
26807;BME280;14380;49.910;6.792;2023-06-24T06:43:51;99710.94;;;23.92;90.24
26807;BME280;14380;49.910;6.792;2023-06-24T06:46:17;99708.56;;;23.99;90.09
26807;BME280;14380;49.910;6.792;2023-06-24T06:48:44;99715.13;;;23.77;89.10
26807;BME280;14380;49.910;6.792;2023-06-24T06:51:12;99711.63;;;23.67;90.63
26807;BME280;14380;49.910;6.792;2023-06-24T06:53:40;99708.69;;;23.88;88.12
26807;BME280;14380;49.910;6.792;2023-06-24T06:56:06;99715.41;;;24.22;88.63
26807;BME280;14380;49.910;6.792;2023-06-24T06:58:33;99718.81;;;24.24;88.34
26807;BME280;14380;49.910;6.792;2023-06-24T07:01:00;99712.59;;;24.41;90.36
26807;BME280;14380;49.910;6.792;2023-06-24T07:03:27;99709.38;;;24.56;89.05
26807;BME280;14380;49.910;6.792;2023-06-24T07:05:54;99717.50;;;24.56;87.98
26807;BME280;14380;49.910;6.792;2023-06-24T07:08:20;99698.91;;;24.71;88.38
26807;BME280;14380;49.910;6.792;2023-06-24T07:10:53;99709.47;;;24.64;88.50
26807;BME280;14380;49.910;6.792;2023-06-24T07:13:27;99709.22;;;24.85;86.78
26807;BME280;14380;49.910;6.792;2023-06-24T07:15:53;99707.19;;;24.69;86.95
26807;BME280;14380;49.910;6.792;2023-06-24T07:18:20;99707.34;;;24.86;86.94
26807;BME280;14380;49.910;6.792;2023-06-24T07:20:47;99701.84;;;24.95;85.91
26807;BME280;14380;49.910;6.792;2023-06-24T07:23:14;99697.31;;;25.14;88.42
26807;BME280;14380;49.910;6.792;2023-06-24T07:25:41;99701.09;;;25.03;86.65
26807;BME280;14380;49.910;6.792;2023-06-24T07:28:09;99699.16;;;25.40;87.61
26807;BME280;14380;49.910;6.792;2023-06-24T07:30:35;99691.28;;;25.65;87.59
26807;BME280;14380;49.910;6.792;2023-06-24T07:33:02;99696.47;;;25.93;84.02
26807;BME280;14380;49.910;6.792;2023-06-24T07:35:31;99694.41;;;25.78;83.46
26807;BME280;14380;49.910;6.792;2023-06-24T07:37:57;99689.88;;;25.61;83.14
26807;BME280;14380;49.910;6.792;2023-06-24T07:40:24;99690.56;;;25.89;87.21
26807;BME280;14380;49.910;6.792;2023-06-24T07:42:50;99695.31;;;26.30;85.17
26807;BME280;14380;49.910;6.792;2023-06-24T07:45:18;99687.66;;;26.17;82.63
26807;BME280;14380;49.910;6.792;2023-06-24T07:47:45;99690.25;;;25.92;86.22
26807;BME280;14380;49.910;6.792;2023-06-24T07:50:11;99692.91;;;26.19;79.47
26807;BME280;14380;49.910;6.792;2023-06-24T07:52:38;99684.00;;;26.35;80.93
26807;BME280;14380;49.910;6.792;2023-06-24T07:55:05;99690.81;;;26.47;80.76
26807;BME280;14380;49.910;6.792;2023-06-24T07:57:32;99694.72;;;26.61;79.17
26807;BME280;14380;49.910;6.792;2023-06-24T07:59:59;99687.63;;;26.68;79.89
26807;BME280;14380;49.910;6.792;2023-06-24T08:02:28;99689.25;;;26.45;78.70
26807;BME280;14380;49.910;6.792;2023-06-24T08:04:55;99687.53;;;27.20;80.43
26807;BME280;14380;49.910;6.792;2023-06-24T08:07:24;99682.38;;;26.75;78.47
26807;BME280;14380;49.910;6.792;2023-06-24T08:09:51;99683.28;;;26.92;78.96
26807;BME280;14380;49.910;6.792;2023-06-24T08:12:17;99681.41;;;26.84;77.69
26807;BME280;14380;49.910;6.792;2023-06-24T08:14:44;99687.50;;;27.11;78.54
26807;BME280;14380;49.910;6.792;2023-06-24T08:17:10;99679.38;;;27.03;77.85
26807;BME280;14380;49.910;6.792;2023-06-24T08:19:38;99686.47;;;27.45;77.76
26807;BME280;14380;49.910;6.792;2023-06-24T08:22:05;99685.97;;;27.42;77.72
26807;BME280;14380;49.910;6.792;2023-06-24T08:24:31;99681.72;;;27.56;74.83
26807;BME280;14380;49.910;6.792;2023-06-24T08:26:58;99680.38;;;27.60;77.46
26807;BME280;14380;49.910;6.792;2023-06-24T08:29:24;99669.63;;;27.83;75.47
26807;BME280;14380;49.910;6.792;2023-06-24T08:31:51;99663.41;;;28.14;73.90
26807;BME280;14380;49.910;6.792;2023-06-24T08:34:17;99659.19;;;28.03;73.90
26807;BME280;14380;49.910;6.792;2023-06-24T08:36:46;99663.59;;;28.04;74.75
26807;BME280;14380;49.910;6.792;2023-06-24T08:39:12;99664.16;;;28.31;69.03
26807;BME280;14380;49.910;6.792;2023-06-24T08:41:39;99663.31;;;27.91;69.97
26807;BME280;14380;49.910;6.792;2023-06-24T08:44:05;99664.13;;;28.00;71.96
26807;BME280;14380;49.910;6.792;2023-06-24T08:46:33;99656.69;;;28.33;71.54
26807;BME280;14380;49.910;6.792;2023-06-24T08:49:03;99654.28;;;28.39;69.98
26807;BME280;14380;49.910;6.792;2023-06-24T08:51:39;99652.19;;;28.49;69.45
26807;BME280;14380;49.910;6.792;2023-06-24T08:54:09;99653.66;;;29.21;68.33
26807;BME280;14380;49.910;6.792;2023-06-24T08:56:36;99652.09;;;28.66;70.84
26807;BME280;14380;49.910;6.792;2023-06-24T08:59:04;99659.25;;;28.90;67.67
26807;BME280;14380;49.910;6.792;2023-06-24T09:01:31;99654.16;;;28.87;68.11
26807;BME280;14380;49.910;6.792;2023-06-24T09:03:58;99652.44;;;28.62;66.50
26807;BME280;14380;49.910;6.792;2023-06-24T09:06:25;99653.47;;;28.61;65.53
26807;BME280;14380;49.910;6.792;2023-06-24T09:08:53;99648.13;;;28.45;65.33
26807;BME280;14380;49.910;6.792;2023-06-24T09:11:23;99652.31;;;27.84;66.47
26807;BME280;14380;49.910;6.792;2023-06-24T09:13:54;99652.94;;;29.28;67.18
26807;BME280;14380;49.910;6.792;2023-06-24T09:16:22;99649.38;;;28.89;66.05
26807;BME280;14380;49.910;6.792;2023-06-24T09:18:49;99646.69;;;28.34;64.94
26807;BME280;14380;49.910;6.792;2023-06-24T09:21:22;99652.88;;;27.71;66.03
26807;BME280;14380;49.910;6.792;2023-06-24T09:23:51;99653.72;;;27.64;66.44
26807;BME280;14380;49.910;6.792;2023-06-24T09:26:18;99651.75;;;27.33;66.67
26807;BME280;14380;49.910;6.792;2023-06-24T09:28:48;99643.91;;;27.63;66.90
26807;BME280;14380;49.910;6.792;2023-06-24T09:31:15;99638.97;;;27.66;66.11
26807;BME280;14380;49.910;6.792;2023-06-24T09:33:42;99644.91;;;27.61;65.95
26807;BME280;14380;49.910;6.792;2023-06-24T09:36:11;99640.03;;;27.57;70.14
26807;BME280;14380;49.910;6.792;2023-06-24T09:38:40;99635.22;;;27.75;71.92
26807;BME280;14380;49.910;6.792;2023-06-24T09:41:08;99630.97;;;27.73;68.75
26807;BME280;14380;49.910;6.792;2023-06-24T09:43:35;99631.31;;;27.70;68.14
26807;BME280;14380;49.910;6.792;2023-06-24T09:46:03;99629.31;;;27.64;71.06
26807;BME280;14380;49.910;6.792;2023-06-24T09:48:30;99628.00;;;27.43;70.96
26807;BME280;14380;49.910;6.792;2023-06-24T09:50:59;99624.84;;;26.98;76.22
26807;BME280;14380;49.910;6.792;2023-06-24T09:53:27;99621.38;;;27.54;77.05
26807;BME280;14380;49.910;6.792;2023-06-24T09:55:56;99612.41;;;28.33;76.50
26807;BME280;14380;49.910;6.792;2023-06-24T09:58:24;99605.63;;;28.99;70.46
26807;BME280;14380;49.910;6.792;2023-06-24T10:00:51;99610.94;;;29.30;68.32
26807;BME280;14380;49.910;6.792;2023-06-24T10:03:20;99602.59;;;29.47;65.27
26807;BME280;14380;49.910;6.792;2023-06-24T10:05:48;99603.38;;;29.17;63.59
26807;BME280;14380;49.910;6.792;2023-06-24T10:08:14;99605.69;;;29.74;63.91
26807;BME280;14380;49.910;6.792;2023-06-24T10:10:41;99596.19;;;29.85;60.55
26807;BME280;14380;49.910;6.792;2023-06-24T10:13:08;99594.88;;;29.80;61.05
26807;BME280;14380;49.910;6.792;2023-06-24T10:15:35;99596.31;;;29.31;59.08
26807;BME280;14380;49.910;6.792;2023-06-24T10:18:02;99586.63;;;29.14;59.55
26807;BME280;14380;49.910;6.792;2023-06-24T10:20:36;99591.69;;;29.17;59.88
26807;BME280;14380;49.910;6.792;2023-06-24T10:23:06;99583.56;;;29.77;64.14
26807;BME280;14380;49.910;6.792;2023-06-24T10:25:35;99583.28;;;30.23;60.02
26807;BME280;14380;49.910;6.792;2023-06-24T10:28:03;99582.19;;;30.03;57.55
26807;BME280;14380;49.910;6.792;2023-06-24T10:30:30;99579.91;;;29.40;60.41
26807;BME280;14380;49.910;6.792;2023-06-24T10:32:58;99575.16;;;29.18;60.10
26807;BME280;14380;49.910;6.792;2023-06-24T10:35:26;99571.56;;;29.41;62.12
26807;BME280;14380;49.910;6.792;2023-06-24T10:37:57;99576.84;;;29.19;60.61
26807;BME280;14380;49.910;6.792;2023-06-24T10:40:41;99572.03;;;28.76;61.66
26807;BME280;14380;49.910;6.792;2023-06-24T10:43:28;99565.03;;;28.74;64.05
26807;BME280;14380;49.910;6.792;2023-06-24T10:45:57;99573.97;;;28.44;60.52
26807;BME280;14380;49.910;6.792;2023-06-24T10:48:24;99569.03;;;28.16;66.08
26807;BME280;14380;49.910;6.792;2023-06-24T10:50:50;99561.94;;;28.07;70.61
26807;BME280;14380;49.910;6.792;2023-06-24T10:53:19;99565.13;;;28.89;68.21
26807;BME280;14380;49.910;6.792;2023-06-24T10:55:45;99557.84;;;29.64;64.18
26807;BME280;14380;49.910;6.792;2023-06-24T10:58:14;99559.25;;;30.34;63.09
26807;BME280;14380;49.910;6.792;2023-06-24T11:00:41;99564.06;;;30.53;58.69
26807;BME280;14380;49.910;6.792;2023-06-24T11:03:09;99560.38;;;30.61;58.65
26807;BME280;14380;49.910;6.792;2023-06-24T11:05:40;99553.47;;;30.59;57.50
26807;BME280;14380;49.910;6.792;2023-06-24T11:08:07;99547.63;;;30.90;55.86
26807;BME280;14380;49.910;6.792;2023-06-24T11:10:41;99549.13;;;31.21;56.69
26807;BME280;14380;49.910;6.792;2023-06-24T11:13:10;99543.56;;;31.14;60.10
26807;BME280;14380;49.910;6.792;2023-06-24T11:15:37;99542.28;;;31.39;57.07
26807;BME280;14380;49.910;6.792;2023-06-24T11:18:04;99539.88;;;30.94;55.50
26807;BME280;14380;49.910;6.792;2023-06-24T11:20:31;99528.50;;;31.54;57.90
26807;BME280;14380;49.910;6.792;2023-06-24T11:22:57;99524.25;;;31.93;55.53
26807;BME280;14380;49.910;6.792;2023-06-24T11:25:24;99525.34;;;32.19;59.52
26807;BME280;14380;49.910;6.792;2023-06-24T11:27:52;99530.84;;;31.22;53.05
26807;BME280;14380;49.910;6.792;2023-06-24T11:30:19;99516.28;;;31.98;57.68
26807;BME280;14380;49.910;6.792;2023-06-24T11:32:46;99522.81;;;31.97;56.98
26807;BME280;14380;49.910;6.792;2023-06-24T11:35:15;99524.25;;;31.44;54.04
26807;BME280;14380;49.910;6.792;2023-06-24T11:37:43;99523.06;;;31.19;55.44
26807;BME280;14380;49.910;6.792;2023-06-24T11:40:10;99512.38;;;31.66;55.71
26807;BME280;14380;49.910;6.792;2023-06-24T11:42:39;99507.50;;;31.54;53.59
26807;BME280;14380;49.910;6.792;2023-06-24T11:45:09;99509.00;;;31.57;53.70
26807;BME280;14380;49.910;6.792;2023-06-24T11:47:38;99510.13;;;31.34;54.30
26807;BME280;14380;49.910;6.792;2023-06-24T11:50:08;99492.50;;;31.85;52.38
26807;BME280;14380;49.910;6.792;2023-06-24T11:52:39;99502.72;;;32.39;53.87
26807;BME280;14380;49.910;6.792;2023-06-24T11:55:12;99491.91;;;32.24;54.69
26807;BME280;14380;49.910;6.792;2023-06-24T11:57:53;99491.22;;;31.74;54.59
26807;BME280;14380;49.910;6.792;2023-06-24T12:00:22;99486.13;;;31.71;53.04
26807;BME280;14380;49.910;6.792;2023-06-24T12:02:50;99494.16;;;31.24;53.71
26807;BME280;14380;49.910;6.792;2023-06-24T12:05:22;99480.81;;;30.73;56.45
26807;BME280;14380;49.910;6.792;2023-06-24T12:07:53;99494.28;;;30.09;55.57
26807;BME280;14380;49.910;6.792;2023-06-24T12:10:20;99489.75;;;30.16;55.69
26807;BME280;14380;49.910;6.792;2023-06-24T12:12:47;99480.59;;;29.65;56.20
26807;BME280;14380;49.910;6.792;2023-06-24T12:15:13;99483.44;;;29.57;56.87
26807;BME280;14380;49.910;6.792;2023-06-24T12:17:41;99481.31;;;29.74;56.32
26807;BME280;14380;49.910;6.792;2023-06-24T12:20:09;99471.97;;;30.49;56.39
26807;BME280;14380;49.910;6.792;2023-06-24T12:22:35;99478.66;;;30.18;55.84
26807;BME280;14380;49.910;6.792;2023-06-24T12:25:03;99470.78;;;30.30;56.78
26807;BME280;14380;49.910;6.792;2023-06-24T12:27:29;99462.59;;;30.51;55.80
26807;BME280;14380;49.910;6.792;2023-06-24T12:29:56;99464.06;;;30.82;56.43
26807;BME280;14380;49.910;6.792;2023-06-24T12:32:23;99461.22;;;30.97;58.13
26807;BME280;14380;49.910;6.792;2023-06-24T12:34:51;99463.50;;;31.22;56.69
26807;BME280;14380;49.910;6.792;2023-06-24T12:37:18;99452.59;;;31.29;56.80
26807;BME280;14380;49.910;6.792;2023-06-24T12:39:45;99448.00;;;31.36;55.85
26807;BME280;14380;49.910;6.792;2023-06-24T12:42:12;99451.84;;;31.49;52.79
26807;BME280;14380;49.910;6.792;2023-06-24T12:44:39;99441.47;;;31.93;54.17
26807;BME280;14380;49.910;6.792;2023-06-24T12:47:05;99441.84;;;31.21;52.36
26807;BME280;14380;49.910;6.792;2023-06-24T12:49:32;99448.25;;;31.48;55.29
26807;BME280;14380;49.910;6.792;2023-06-24T12:52:01;99443.38;;;31.30;54.59
26807;BME280;14380;49.910;6.792;2023-06-24T12:54:28;99439.06;;;31.56;54.52
26807;BME280;14380;49.910;6.792;2023-06-24T12:56:54;99440.31;;;30.69;53.97
26807;BME280;14380;49.910;6.792;2023-06-24T12:59:22;99433.91;;;30.84;57.16